GOV weather

Grayling Army Air Field
Grayling, Michigan, United States

Public forecast

Using degrees Fahrenheit for public forecast. Weather courtesy of forecast.io.

Current aviation weather report (METAR) for Grayling Army Air Field

Retrieved 2020/04/05 21:58 UTC (35 minutes ago):

KGOV 052158Z AUTO 34007KT 10SM CLR 13/M10 A3013 RMK AO2 SLP219 T01261103

Closest aviation forecast (TAF) to Grayling Army Air Field

Closest forecast is Cherry Capital Airport, 36.6 nm (67.8 km) W. Retrieved 2020/04/05 18:22 UTC (4 hours ago):

TAF KTVC 051720Z 0518/0618 02007KT P6SM SKC FM060100 VRB03KT P6SM SKC FM061100 VRB03KT P6SM BKN200 FM061600 23006KT P6SM BKN140